sensor_id;sensor_type;location;lat;lon;timestamp;temperature;humidity
18712;DHT22;9485;49.386;8.674;2023-06-14T00:00:58;25.30;29.00
18712;DHT22;9485;49.386;8.674;2023-06-14T00:06:20;25.20;28.90
18712;DHT22;9485;49.386;8.674;2023-06-14T00:11:44;25.20;29.00
18712;DHT22;9485;49.386;8.674;2023-06-14T00:17:04;25.20;29.00
18712;DHT22;9485;49.386;8.674;2023-06-14T00:22:27;25.20;29.00
18712;DHT22;9485;49.386;8.674;2023-06-14T00:27:50;25.20;29.10
18712;DHT22;9485;49.386;8.674;2023-06-14T00:33:10;25.10;29.10
18712;DHT22;9485;49.386;8.674;2023-06-14T00:38:32;25.10;29.10
18712;DHT22;9485;49.386;8.674;2023-06-14T00:43:53;25.10;29.10
18712;DHT22;9485;49.386;8.674;2023-06-14T00:49:16;25.10;29.10
18712;DHT22;9485;49.386;8.674;2023-06-14T00:54:40;25.00;29.10
18712;DHT22;9485;49.386;8.674;2023-06-14T01:00:00;25.00;29.10
18712;DHT22;9485;49.386;8.674;2023-06-14T01:05:21;25.00;29.10
18712;DHT22;9485;49.386;8.674;2023-06-14T01:10:49;25.00;29.10
18712;DHT22;9485;49.386;8.674;2023-06-14T01:16:15;24.90;29.10
18712;DHT22;9485;49.386;8.674;2023-06-14T01:21:35;24.90;29.00
18712;DHT22;9485;49.386;8.674;2023-06-14T01:27:03;24.80;29.00
18712;DHT22;9485;49.386;8.674;2023-06-14T01:32:24;24.80;29.10
18712;DHT22;9485;49.386;8.674;2023-06-14T01:37:47;24.70;29.10
18712;DHT22;9485;49.386;8.674;2023-06-14T01:43:11;24.70;29.10
18712;DHT22;9485;49.386;8.674;2023-06-14T01:48:34;24.70;29.20
18712;DHT22;9485;49.386;8.674;2023-06-14T01:53:56;24.60;29.20
18712;DHT22;9485;49.386;8.674;2023-06-14T01:59:18;24.60;29.20
18712;DHT22;9485;49.386;8.674;2023-06-14T02:04:38;24.50;29.30
18712;DHT22;9485;49.386;8.674;2023-06-14T02:09:59;24.50;29.30
18712;DHT22;9485;49.386;8.674;2023-06-14T02:15:21;24.40;29.40
18712;DHT22;9485;49.386;8.674;2023-06-14T02:20:42;24.40;29.40
18712;DHT22;9485;49.386;8.674;2023-06-14T02:26:04;24.40;29.40
18712;DHT22;9485;49.386;8.674;2023-06-14T02:31:29;24.40;29.50
18712;DHT22;9485;49.386;8.674;2023-06-14T02:36:49;24.30;29.60
18712;DHT22;9485;49.386;8.674;2023-06-14T02:42:12;24.30;29.60
18712;DHT22;9485;49.386;8.674;2023-06-14T02:47:36;24.30;29.70
18712;DHT22;9485;49.386;8.674;2023-06-14T02:52:57;24.20;29.70
18712;DHT22;9485;49.386;8.674;2023-06-14T02:58:18;24.20;29.70
18712;DHT22;9485;49.386;8.674;2023-06-14T03:03:40;24.20;29.80
18712;DHT22;9485;49.386;8.674;2023-06-14T03:09:02;24.10;29.80
18712;DHT22;9485;49.386;8.674;2023-06-14T03:14:25;24.10;29.90
18712;DHT22;9485;49.386;8.674;2023-06-14T03:19:47;24.10;30.00
18712;DHT22;9485;49.386;8.674;2023-06-14T03:25:09;24.00;30.00
18712;DHT22;9485;49.386;8.674;2023-06-14T03:30:32;24.00;30.00
18712;DHT22;9485;49.386;8.674;2023-06-14T03:35:55;24.00;30.00
18712;DHT22;9485;49.386;8.674;2023-06-14T03:41:17;24.00;30.40
18712;DHT22;9485;49.386;8.674;2023-06-14T03:46:37;23.90;30.30
18712;DHT22;9485;49.386;8.674;2023-06-14T03:51:59;23.80;30.50
18712;DHT22;9485;49.386;8.674;2023-06-14T03:57:22;23.60;30.70
18712;DHT22;9485;49.386;8.674;2023-06-14T04:02:44;23.50;30.80
18712;DHT22;9485;49.386;8.674;2023-06-14T04:08:06;23.30;31.00
18712;DHT22;9485;49.386;8.674;2023-06-14T04:13:28;23.20;31.40
18712;DHT22;9485;49.386;8.674;2023-06-14T04:18:49;23.00;31.50
18712;DHT22;9485;49.386;8.674;2023-06-14T04:24:12;22.90;32.20
18712;DHT22;9485;49.386;8.674;2023-06-14T04:29:36;22.80;32.60
18712;DHT22;9485;49.386;8.674;2023-06-14T04:35:02;22.70;32.80
18712;DHT22;9485;49.386;8.674;2023-06-14T04:40:25;22.60;33.00
18712;DHT22;9485;49.386;8.674;2023-06-14T04:45:46;22.60;33.50
18712;DHT22;9485;49.386;8.674;2023-06-14T04:51:07;22.50;33.70
18712;DHT22;9485;49.386;8.674;2023-06-14T04:56:29;22.50;33.80
18712;DHT22;9485;49.386;8.674;2023-06-14T05:01:51;22.40;34.20
18712;DHT22;9485;49.386;8.674;2023-06-14T05:07:17;22.40;34.10
18712;DHT22;9485;49.386;8.674;2023-06-14T05:12:40;22.40;34.20
18712;DHT22;9485;49.386;8.674;2023-06-14T05:18:03;22.40;34.50
18712;DHT22;9485;49.386;8.674;2023-06-14T05:23:28;22.50;34.30
18712;DHT22;9485;49.386;8.674;2023-06-14T05:28:52;22.50;34.40
18712;DHT22;9485;49.386;8.674;2023-06-14T05:34:13;22.50;34.60
18712;DHT22;9485;49.386;8.674;2023-06-14T05:39:34;22.60;34.80
18712;DHT22;9485;49.386;8.674;2023-06-14T05:44:57;22.60;35.60
18712;DHT22;9485;49.386;8.674;2023-06-14T05:50:18;22.60;35.10
18712;DHT22;9485;49.386;8.674;2023-06-14T05:55:40;22.70;35.10
18712;DHT22;9485;49.386;8.674;2023-06-14T06:01:02;22.80;35.00
18712;DHT22;9485;49.386;8.674;2023-06-14T06:06:23;22.90;35.10
18712;DHT22;9485;49.386;8.674;2023-06-14T06:11:44;23.00;35.20
18712;DHT22;9485;49.386;8.674;2023-06-14T06:17:07;23.10;35.10
18712;DHT22;9485;49.386;8.674;2023-06-14T06:22:29;23.20;35.40
18712;DHT22;9485;49.386;8.674;2023-06-14T06:27:50;23.30;35.20
18712;DHT22;9485;49.386;8.674;2023-06-14T06:33:12;23.50;35.10
18712;DHT22;9485;49.386;8.674;2023-06-14T06:38:34;23.50;35.30
18712;DHT22;9485;49.386;8.674;2023-06-14T06:43:56;23.70;35.00
18712;DHT22;9485;49.386;8.674;2023-06-14T06:49:23;23.80;35.10
18712;DHT22;9485;49.386;8.674;2023-06-14T06:54:44;24.00;35.00
18712;DHT22;9485;49.386;8.674;2023-06-14T07:00:06;24.10;35.00
18712;DHT22;9485;49.386;8.674;2023-06-14T07:05:33;24.30;35.00
18712;DHT22;9485;49.386;8.674;2023-06-14T07:10:55;24.40;34.90
18712;DHT22;9485;49.386;8.674;2023-06-14T07:16:16;24.60;34.70
18712;DHT22;9485;49.386;8.674;2023-06-14T07:21:39;24.90;35.00
18712;DHT22;9485;49.386;8.674;2023-06-14T07:27:00;25.20;34.60
18712;DHT22;9485;49.386;8.674;2023-06-14T07:32:22;25.80;35.10
18712;DHT22;9485;49.386;8.674;2023-06-14T07:37:44;26.70;35.60
18712;DHT22;9485;49.386;8.674;2023-06-14T07:43:06;27.80;35.30
18712;DHT22;9485;49.386;8.674;2023-06-14T07:48:27;29.20;35.10
18712;DHT22;9485;49.386;8.674;2023-06-14T07:53:49;30.50;34.20
18712;DHT22;9485;49.386;8.674;2023-06-14T07:59:10;31.70;33.00
18712;DHT22;9485;49.386;8.674;2023-06-14T08:04:32;32.70;32.50
18712;DHT22;9485;49.386;8.674;2023-06-14T08:09:55;33.50;31.40
18712;DHT22;9485;49.386;8.674;2023-06-14T08:15:16;34.30;30.50
18712;DHT22;9485;49.386;8.674;2023-06-14T08:20:37;35.00;30.10
18712;DHT22;9485;49.386;8.674;2023-06-14T08:26:01;35.50;29.70
18712;DHT22;9485;49.386;8.674;2023-06-14T08:31:24;36.00;28.90
18712;DHT22;9485;49.386;8.674;2023-06-14T08:36:45;36.40;28.70
18712;DHT22;9485;49.386;8.674;2023-06-14T08:42:09;36.80;28.30
18712;DHT22;9485;49.386;8.674;2023-06-14T08:47:30;37.10;27.80
18712;DHT22;9485;49.386;8.674;2023-06-14T08:52:57;37.20;27.40
18712;DHT22;9485;49.386;8.674;2023-06-14T08:58:22;37.20;26.80
18712;DHT22;9485;49.386;8.674;2023-06-14T09:03:43;37.10;26.40
18712;DHT22;9485;49.386;8.674;2023-06-14T09:09:05;37.00;26.60
18712;DHT22;9485;49.386;8.674;2023-06-14T09:14:28;36.90;26.50
18712;DHT22;9485;49.386;8.674;2023-06-14T09:19:50;36.70;26.10
18712;DHT22;9485;49.386;8.674;2023-06-14T09:25:11;36.50;26.10
18712;DHT22;9485;49.386;8.674;2023-06-14T09:30:37;36.30;26.00
18712;DHT22;9485;49.386;8.674;2023-06-14T09:35:59;36.10;25.60
18712;DHT22;9485;49.386;8.674;2023-06-14T09:41:26;35.70;25.60
18712;DHT22;9485;49.386;8.674;2023-06-14T09:46:55;35.40;25.80
18712;DHT22;9485;49.386;8.674;2023-06-14T09:52:18;35.20;25.70
18712;DHT22;9485;49.386;8.674;2023-06-14T09:57:41;35.10;25.90
18712;DHT22;9485;49.386;8.674;2023-06-14T10:03:12;35.00;25.90
18712;DHT22;9485;49.386;8.674;2023-06-14T10:08:36;35.00;25.50
18712;DHT22;9485;49.386;8.674;2023-06-14T10:13:59;35.20;26.10
18712;DHT22;9485;49.386;8.674;2023-06-14T10:19:25;35.40;25.80
18712;DHT22;9485;49.386;8.674;2023-06-14T10:24:56;35.50;25.30
18712;DHT22;9485;49.386;8.674;2023-06-14T10:30:17;35.50;25.20
18712;DHT22;9485;49.386;8.674;2023-06-14T10:35:46;35.30;25.10
18712;DHT22;9485;49.386;8.674;2023-06-14T10:41:07;35.40;25.30
18712;DHT22;9485;49.386;8.674;2023-06-14T10:46:29;35.50;25.40
18712;DHT22;9485;49.386;8.674;2023-06-14T10:51:51;35.80;25.30
18712;DHT22;9485;49.386;8.674;2023-06-14T10:57:12;36.00;24.90
18712;DHT22;9485;49.386;8.674;2023-06-14T11:02:52;36.10;24.90
18712;DHT22;9485;49.386;8.674;2023-06-14T11:09:10;36.10;24.40
18712;DHT22;9485;49.386;8.674;2023-06-14T11:14:46;36.10;24.50
18712;DHT22;9485;49.386;8.674;2023-06-14T11:20:08;36.10;25.00
18712;DHT22;9485;49.386;8.674;2023-06-14T11:25:32;36.20;25.10
18712;DHT22;9485;49.386;8.674;2023-06-14T11:30:59;36.40;24.90
18712;DHT22;9485;49.386;8.674;2023-06-14T11:36:21;36.60;24.00
18712;DHT22;9485;49.386;8.674;2023-06-14T11:41:45;36.40;24.30
18712;DHT22;9485;49.386;8.674;2023-06-14T11:47:06;36.30;24.70
18712;DHT22;9485;49.386;8.674;2023-06-14T11:52:27;36.30;24.50
18712;DHT22;9485;49.386;8.674;2023-06-14T11:57:50;36.30;24.40
18712;DHT22;9485;49.386;8.674;2023-06-14T12:03:14;36.30;24.40
18712;DHT22;9485;49.386;8.674;2023-06-14T12:08:35;36.30;24.20
18712;DHT22;9485;49.386;8.674;2023-06-14T12:14:02;36.30;24.60
18712;DHT22;9485;49.386;8.674;2023-06-14T12:19:26;36.40;24.60
18712;DHT22;9485;49.386;8.674;2023-06-14T12:24:47;36.30;24.20
18712;DHT22;9485;49.386;8.674;2023-06-14T12:30:10;36.10;24.00
18712;DHT22;9485;49.386;8.674;2023-06-14T12:35:32;35.60;23.90
18712;DHT22;9485;49.386;8.674;2023-06-14T12:40:54;35.40;24.30
18712;DHT22;9485;49.386;8.674;2023-06-14T12:46:17;35.20;24.10
18712;DHT22;9485;49.386;8.674;2023-06-14T12:51:39;34.90;24.20
18712;DHT22;9485;49.386;8.674;2023-06-14T12:57:00;34.70;24.70
18712;DHT22;9485;49.386;8.674;2023-06-14T13:02:24;34.60;24.90
18712;DHT22;9485;49.386;8.674;2023-06-14T13:07:47;34.60;24.70
18712;DHT22;9485;49.386;8.674;2023-06-14T13:13:08;34.30;24.50
18712;DHT22;9485;49.386;8.674;2023-06-14T13:18:32;34.00;24.50
18712;DHT22;9485;49.386;8.674;2023-06-14T13:23:53;33.50;24.60
18712;DHT22;9485;49.386;8.674;2023-06-14T13:29:14;33.30;24.90
18712;DHT22;9485;49.386;8.674;2023-06-14T13:34:37;33.20;25.40
18712;DHT22;9485;49.386;8.674;2023-06-14T13:39:57;33.80;25.70
18712;DHT22;9485;49.386;8.674;2023-06-14T13:45:18;34.70;25.60
18712;DHT22;9485;49.386;8.674;2023-06-14T13:50:41;35.50;25.20
18712;DHT22;9485;49.386;8.674;2023-06-14T13:56:02;36.00;24.50
18712;DHT22;9485;49.386;8.674;2023-06-14T14:01:23;35.90;24.30
18712;DHT22;9485;49.386;8.674;2023-06-14T14:06:46;35.80;24.40
18712;DHT22;9485;49.386;8.674;2023-06-14T14:12:07;35.70;24.30
18712;DHT22;9485;49.386;8.674;2023-06-14T14:17:29;35.50;24.10
18712;DHT22;9485;49.386;8.674;2023-06-14T14:22:51;35.10;24.00
18712;DHT22;9485;49.386;8.674;2023-06-14T14:28:13;34.50;24.00
18712;DHT22;9485;49.386;8.674;2023-06-14T14:33:35;33.90;24.10
18712;DHT22;9485;49.386;8.674;2023-06-14T14:38:57;33.30;24.40
18712;DHT22;9485;49.386;8.674;2023-06-14T14:44:18;32.80;24.30
18712;DHT22;9485;49.386;8.674;2023-06-14T14:49:39;32.40;24.80
18712;DHT22;9485;49.386;8.674;2023-06-14T14:55:02;32.10;25.10
18712;DHT22;9485;49.386;8.674;2023-06-14T15:00:25;31.90;25.40
18712;DHT22;9485;49.386;8.674;2023-06-14T15:05:47;31.80;25.70
18712;DHT22;9485;49.386;8.674;2023-06-14T15:11:09;31.80;25.70
18712;DHT22;9485;49.386;8.674;2023-06-14T15:16:29;31.70;25.70
18712;DHT22;9485;49.386;8.674;2023-06-14T15:21:50;31.80;25.70
18712;DHT22;9485;49.386;8.674;2023-06-14T15:27:12;31.70;25.70
18712;DHT22;9485;49.386;8.674;2023-06-14T15:32:33;31.60;25.70
18712;DHT22;9485;49.386;8.674;2023-06-14T15:37:54;31.50;25.80
18712;DHT22;9485;49.386;8.674;2023-06-14T15:43:16;31.40;26.00
18712;DHT22;9485;49.386;8.674;2023-06-14T15:48:37;31.30;26.20
18712;DHT22;9485;49.386;8.674;2023-06-14T15:53:58;31.30;26.10
18712;DHT22;9485;49.386;8.674;2023-06-14T15:59:20;31.30;26.00
18712;DHT22;9485;49.386;8.674;2023-06-14T16:04:41;31.30;26.00
18712;DHT22;9485;49.386;8.674;2023-06-14T16:10:03;31.20;26.10
18712;DHT22;9485;49.386;8.674;2023-06-14T16:15:25;31.10;26.10
18712;DHT22;9485;49.386;8.674;2023-06-14T16:20:46;31.00;26.20
18712;DHT22;9485;49.386;8.674;2023-06-14T16:26:10;30.80;26.20
18712;DHT22;9485;49.386;8.674;2023-06-14T16:31:33;30.60;26.20
18712;DHT22;9485;49.386;8.674;2023-06-14T16:36:54;30.30;26.20
18712;DHT22;9485;49.386;8.674;2023-06-14T16:42:15;30.10;26.40
18712;DHT22;9485;49.386;8.674;2023-06-14T16:47:37;29.90;26.50
18712;DHT22;9485;49.386;8.674;2023-06-14T16:52:58;29.70;26.70
18712;DHT22;9485;49.386;8.674;2023-06-14T16:58:19;29.50;26.80
18712;DHT22;9485;49.386;8.674;2023-06-14T17:03:41;29.30;27.10
18712;DHT22;9485;49.386;8.674;2023-06-14T17:09:02;29.20;26.90
18712;DHT22;9485;49.386;8.674;2023-06-14T17:14:23;29.10;26.80
18712;DHT22;9485;49.386;8.674;2023-06-14T17:19:45;29.00;26.80
18712;DHT22;9485;49.386;8.674;2023-06-14T17:25:07;28.90;26.90
18712;DHT22;9485;49.386;8.674;2023-06-14T17:30:28;28.80;27.00
18712;DHT22;9485;49.386;8.674;2023-06-14T17:35:51;28.70;27.10
18712;DHT22;9485;49.386;8.674;2023-06-14T17:41:12;28.70;27.20
18712;DHT22;9485;49.386;8.674;2023-06-14T17:46:33;28.70;27.30
18712;DHT22;9485;49.386;8.674;2023-06-14T17:51:56;28.60;28.00
18712;DHT22;9485;49.386;8.674;2023-06-14T17:57:17;28.60;28.40
18712;DHT22;9485;49.386;8.674;2023-06-14T18:02:38;28.50;28.50
18712;DHT22;9485;49.386;8.674;2023-06-14T18:08:00;28.40;28.10
18712;DHT22;9485;49.386;8.674;2023-06-14T18:13:21;28.30;28.20
18712;DHT22;9485;49.386;8.674;2023-06-14T18:18:42;28.20;28.30
18712;DHT22;9485;49.386;8.674;2023-06-14T18:24:05;28.00;28.30
18712;DHT22;9485;49.386;8.674;2023-06-14T18:29:26;27.90;28.50
18712;DHT22;9485;49.386;8.674;2023-06-14T18:34:47;27.80;28.40
18712;DHT22;9485;49.386;8.674;2023-06-14T18:40:11;27.70;28.40
18712;DHT22;9485;49.386;8.674;2023-06-14T18:45:33;27.60;28.50
18712;DHT22;9485;49.386;8.674;2023-06-14T18:50:54;27.50;28.50
18712;DHT22;9485;49.386;8.674;2023-06-14T18:56:17;27.40;28.50
18712;DHT22;9485;49.386;8.674;2023-06-14T19:01:37;27.30;28.90
18712;DHT22;9485;49.386;8.674;2023-06-14T19:06:58;27.20;28.90
18712;DHT22;9485;49.386;8.674;2023-06-14T19:12:21;27.10;28.80
18712;DHT22;9485;49.386;8.674;2023-06-14T19:17:42;27.00;29.00
18712;DHT22;9485;49.386;8.674;2023-06-14T19:23:13;26.90;29.30
18712;DHT22;9485;49.386;8.674;2023-06-14T19:28:36;26.70;29.60
18712;DHT22;9485;49.386;8.674;2023-06-14T19:33:56;26.60;29.80
18712;DHT22;9485;49.386;8.674;2023-06-14T19:39:17;26.50;29.90
18712;DHT22;9485;49.386;8.674;2023-06-14T19:44:39;26.30;30.00
18712;DHT22;9485;49.386;8.674;2023-06-14T19:50:00;26.20;30.20
18712;DHT22;9485;49.386;8.674;2023-06-14T19:55:21;26.10;30.30
18712;DHT22;9485;49.386;8.674;2023-06-14T20:00:43;25.90;30.40
18712;DHT22;9485;49.386;8.674;2023-06-14T20:06:06;25.70;30.60
18712;DHT22;9485;49.386;8.674;2023-06-14T20:11:26;25.60;30.60
18712;DHT22;9485;49.386;8.674;2023-06-14T20:16:49;25.50;30.90
18712;DHT22;9485;49.386;8.674;2023-06-14T20:22:10;25.40;31.20
18712;DHT22;9485;49.386;8.674;2023-06-14T20:27:30;25.30;31.10
18712;DHT22;9485;49.386;8.674;2023-06-14T20:32:53;25.20;31.10
18712;DHT22;9485;49.386;8.674;2023-06-14T20:38:13;25.10;31.30
18712;DHT22;9485;49.386;8.674;2023-06-14T20:43:34;25.00;31.30
18712;DHT22;9485;49.386;8.674;2023-06-14T20:48:57;24.90;31.30
18712;DHT22;9485;49.386;8.674;2023-06-14T20:54:17;24.90;31.30
18712;DHT22;9485;49.386;8.674;2023-06-14T20:59:38;24.80;31.10
18712;DHT22;9485;49.386;8.674;2023-06-14T21:05:01;24.80;31.20
18712;DHT22;9485;49.386;8.674;2023-06-14T21:10:22;24.80;31.20
18712;DHT22;9485;49.386;8.674;2023-06-14T21:15:43;24.80;31.20
18712;DHT22;9485;49.386;8.674;2023-06-14T21:21:05;24.90;31.10
18712;DHT22;9485;49.386;8.674;2023-06-14T21:26:28;25.00;31.20
18712;DHT22;9485;49.386;8.674;2023-06-14T21:31:48;25.00;31.00
18712;DHT22;9485;49.386;8.674;2023-06-14T21:37:10;25.10;31.00
18712;DHT22;9485;49.386;8.674;2023-06-14T21:42:31;25.10;30.90
18712;DHT22;9485;49.386;8.674;2023-06-14T21:47:52;25.10;30.90
18712;DHT22;9485;49.386;8.674;2023-06-14T21:53:14;25.10;30.80
18712;DHT22;9485;49.386;8.674;2023-06-14T21:58:34;25.10;30.90
18712;DHT22;9485;49.386;8.674;2023-06-14T22:03:57;25.10;30.90
18712;DHT22;9485;49.386;8.674;2023-06-14T22:09:19;25.00;30.90
18712;DHT22;9485;49.386;8.674;2023-06-14T22:14:40;25.00;30.90
18712;DHT22;9485;49.386;8.674;2023-06-14T22:20:03;24.90;30.80
18712;DHT22;9485;49.386;8.674;2023-06-14T22:25:28;24.90;30.80
18712;DHT22;9485;49.386;8.674;2023-06-14T22:30:48;24.80;30.90
18712;DHT22;9485;49.386;8.674;2023-06-14T22:36:16;24.80;30.90
18712;DHT22;9485;49.386;8.674;2023-06-14T22:41:38;24.70;31.00
18712;DHT22;9485;49.386;8.674;2023-06-14T22:46:59;24.60;31.10
18712;DHT22;9485;49.386;8.674;2023-06-14T22:52:21;24.60;31.30
18712;DHT22;9485;49.386;8.674;2023-06-14T22:57:46;24.50;31.30
18712;DHT22;9485;49.386;8.674;2023-06-14T23:03:08;24.50;31.50
18712;DHT22;9485;49.386;8.674;2023-06-14T23:08:30;24.40;31.50
18712;DHT22;9485;49.386;8.674;2023-06-14T23:13:52;24.40;31.60
18712;DHT22;9485;49.386;8.674;2023-06-14T23:19:13;24.40;31.80
18712;DHT22;9485;49.386;8.674;2023-06-14T23:24:34;24.30;31.80
18712;DHT22;9485;49.386;8.674;2023-06-14T23:29:57;24.30;31.80
18712;DHT22;9485;49.386;8.674;2023-06-14T23:35:19;24.30;32.00
18712;DHT22;9485;49.386;8.674;2023-06-14T23:40:40;24.20;32.00
18712;DHT22;9485;49.386;8.674;2023-06-14T23:46:02;24.20;32.10
18712;DHT22;9485;49.386;8.674;2023-06-14T23:51:24;24.10;32.20
18712;DHT22;9485;49.386;8.674;2023-06-14T23:56:44;24.10;32.20
